Terminal Aerodrome Forecast
Issued by NWS Wakefield, VA

Home | Current Version | Previous Version | Text Only | Print | Product List | Glossary On
Versions: 1 2 3 4 5 6 7 8 9 10 11 12 13
000
FTUS41 KAKQ 212320
TAFORF
TAF
KORF 212320Z 2200/2224 16007KT P6SM BKN150
     FM220300 16005KT P6SM VCSH OVC090
     FM220600 17006KT 6SM -SHRA OVC050
     FM221000 24006KT 4SM -SHRA OVC020
     FM221300 30008KT P6SM BKN015
     FM221600 34013G20KT P6SM SCT080=

USA.gov is the U.S. government's official web portal to all federal, state and local government web resources and services.